Time;durP1;ratioP1;P1;durP2;ratioP2;P2;SDS_P1;SDS_P2;PMS_P1;PMS_P2;Temp;Humidity;BMP_temperature;BMP_pressure;BME280_temperature;BME280_humidity;BME280_pressure;Samples;Min_cycle;Max_cycle;Signal;HPM_P1;HPM_P2
2022/06/01 00:02:05;;;;;;;12.20;11.80;;;;;;;-141.02;100.00;86047.00;5133207;27;20193;-76
2022/06/01 00:04:32;;;;;;;12.13;11.73;;;;;;;-141.02;100.00;86074.22;5133418;27;20193;-76
2022/06/01 00:06:59;;;;;;;10.82;10.52;;;;;;;-141.02;100.00;86140.34;5133082;27;20220;-76
2022/06/01 00:09:26;;;;;;;10.60;10.30;;;;;;;-141.02;100.00;86167.56;5133584;27;20200;-76
2022/06/01 00:11:53;;;;;;;10.68;10.38;;;;;;;-141.02;100.00;86198.66;5133288;27;20311;-76
2022/06/01 00:14:21;;;;;;;10.80;10.50;;;;;;;-141.02;100.00;86206.44;5133036;27;20192;-76
2022/06/01 00:16:49;;;;;;;11.15;10.85;;;;;;;-141.02;100.00;86327.00;5132949;28;20737;-76
2022/06/01 00:19:17;;;;;;;11.07;10.77;;;;;;;-141.02;100.00;86297.81;5132955;28;20218;-75
2022/06/01 00:24:25;;;;;;;12.30;11.90;;;;;;;-141.02;100.00;86268.66;5132642;28;20192;-76
2022/06/01 00:26:52;;;;;;;12.00;11.60;;;;;;;-141.02;100.00;86284.22;5133195;28;20192;-76
2022/06/01 00:29:19;;;;;;;11.10;10.80;;;;;;;-141.02;100.00;86301.72;5133192;28;20193;-75
2022/06/01 00:31:46;;;;;;;12.48;12.07;;;;;;;-141.02;100.00;86237.53;5132743;28;20260;-76
2022/06/01 00:34:13;;;;;;;12.70;12.30;;;;;;;-141.02;100.00;86245.31;5133687;28;20206;-76
2022/06/01 00:36:42;;;;;;;13.00;12.60;;;;;;;-141.02;100.00;86225.88;5132858;28;20279;-76
2022/06/01 00:39:09;;;;;;;11.93;11.52;;;;;;;-141.02;100.00;86268.66;5133099;28;20230;-76
2022/06/01 00:41:36;;;;;;;11.90;11.50;;;;;;;-141.02;100.00;86313.38;5133321;28;20200;-76
2022/06/01 00:44:03;;;;;;;11.52;11.13;;;;;;;-141.02;100.00;86338.66;5133040;27;20282;-76
2022/06/01 00:46:30;;;;;;;11.20;10.90;;;;;;;-141.02;100.00;86350.31;5133051;28;20192;-76
2022/06/01 00:49:01;;;;;;;11.00;10.70;;;;;;;-141.02;100.00;86447.53;5132692;28;20238;-76
2022/06/01 00:51:29;;;;;;;10.77;10.48;;;;;;;-141.02;100.00;86525.31;5132672;27;20213;-76
2022/06/01 00:53:59;;;;;;;9.80;9.50;;;;;;;-141.02;100.00;86669.22;5132936;27;20275;-76
2022/06/01 00:56:31;;;;;;;9.38;9.07;;;;;;;-141.02;100.00;86848.13;5132617;28;20288;-76
2022/06/01 00:59:01;;;;;;;9.32;9.02;;;;;;;-141.02;100.00;87027.03;5132956;28;20220;-75
2022/06/01 01:01:29;;;;;;;9.30;9.00;;;;;;;-141.02;100.00;87194.31;5133166;27;20265;-75
2022/06/01 01:04:00;;;;;;;9.85;9.55;;;;;;;-141.02;100.00;87225.41;5133034;28;20203;-75
2022/06/01 01:06:29;;;;;;;9.70;9.40;;;;;;;-141.02;100.00;87231.25;5132243;28;20224;-76
2022/06/01 01:08:59;;;;;;;9.70;9.40;;;;;;;-141.02;100.00;87248.75;5132837;28;20623;-76
2022/06/01 01:11:33;;;;;;;9.10;8.80;;;;;;;-141.02;100.00;87318.78;5135063;27;20195;-76
2022/06/01 01:14:02;;;;;;;9.60;9.30;;;;;;;-141.02;100.00;87322.66;5136738;27;20184;-76
2022/06/01 01:16:31;;;;;;;9.52;9.23;;;;;;;-141.02;100.00;87334.34;5136242;27;20200;-76
2022/06/01 01:18:59;;;;;;;9.50;9.20;;;;;;;-141.02;100.00;87394.63;5136552;27;20248;-76
2022/06/01 01:21:35;;;;;;;9.48;9.18;;;;;;;-141.02;100.00;87480.22;5136161;27;20227;-76
2022/06/01 01:24:15;;;;;;;8.93;8.63;;;;;;;-141.02;100.00;87542.47;5136446;27;20216;-76
2022/06/01 01:26:48;;;;;;;8.70;8.50;;;;;;;-141.02;100.00;87591.09;5136393;27;20279;-76
2022/06/01 01:29:17;;;;;;;8.55;8.35;;;;;;;-141.02;100.00;87719.47;5136348;27;20200;-76
2022/06/01 01:31:44;;;;;;;8.60;8.40;;;;;;;-141.02;100.00;87777.81;5136136;27;20224;-76
2022/06/01 01:34:11;;;;;;;8.35;8.15;;;;;;;-141.02;100.00;87828.41;5136229;27;20278;-76
2022/06/01 01:36:45;;;;;;;8.68;8.48;;;;;;;-141.02;100.00;87892.59;5135851;27;20192;-75
2022/06/01 01:39:14;;;;;;;8.60;8.40;;;;;;;-141.02;100.00;87933.44;5136148;27;20184;-76
2022/06/01 01:41:45;;;;;;;8.27;8.07;;;;;;;-141.02;100.00;87851.75;5135778;27;20203;-75
2022/06/01 01:44:17;;;;;;;8.00;7.80;;;;;;;-141.02;100.00;88032.66;5135802;27;20531;-76
2022/06/01 01:46:47;;;;;;;8.20;8.00;;;;;;;-141.02;100.00;88077.41;5136038;27;20573;-76
2022/06/01 01:49:14;;;;;;;8.60;8.40;;;;;;;-141.02;100.00;88124.09;5135866;27;20197;-76
2022/06/01 01:51:42;;;;;;;8.50;8.30;;;;;;;-141.02;100.00;88116.31;5135467;27;20685;-76
2022/06/01 01:54:21;;;;;;;8.70;8.50;;;;;;;-141.02;100.00;88120.19;5135817;27;20224;-76
2022/06/01 01:57:13;;;;;;;8.70;8.45;;;;;;;-141.02;100.00;88178.56;5135572;27;20638;-76
2022/06/01 01:59:49;;;;;;;9.00;8.70;;;;;;;-141.02;100.00;88229.13;5133113;27;20239;-76
2022/06/01 02:02:23;;;;;;;8.40;8.20;;;;;;;-141.02;100.00;88306.97;5135709;27;20192;-76
2022/06/01 02:07:48;;;;;;;8.20;8.00;;;;;;;-141.02;100.00;88520.97;5135485;27;20195;-76
2022/06/01 02:13:02;;;;;;;8.40;8.20;;;;;;;-141.02;100.00;88676.63;5135549;27;20216;-76
2022/06/01 02:15:34;;;;;;;8.30;8.10;;;;;;;-141.02;100.00;88719.44;5135108;27;20271;-77
2022/06/01 02:18:06;;;;;;;8.30;8.10;;;;;;;-141.02;100.00;88735.00;5135144;27;20224;-77
2022/06/01 02:20:38;;;;;;;8.30;8.10;;;;;;;-141.02;100.00;88789.47;5135029;27;20188;-77
2022/06/01 02:23:05;;;;;;;8.10;7.90;;;;;;;-141.02;100.00;88836.19;5134807;27;20253;-76
2022/06/01 02:25:32;;;;;;;8.00;7.80;;;;;;;-141.02;100.00;88892.59;5136339;27;20306;-76
2022/06/01 02:28:01;;;;;;;7.88;7.68;;;;;;;-141.02;100.00;88972.41;5134896;27;20279;-77
2022/06/01 02:30:33;;;;;;;7.40;7.20;;;;;;;-141.02;100.00;89131.97;5135142;27;20271;-77
2022/06/01 02:33:01;;;;;;;7.20;7.00;;;;;;;-141.02;100.00;89067.75;5135006;27;20212;-76
2022/06/01 02:35:32;;;;;;;7.13;6.93;;;;;;;-141.02;100.00;89439.44;5135031;27;20196;-76
2022/06/01 02:38:00;;;;;;;6.72;6.53;;;;;;;-141.02;100.00;89517.28;5134637;27;20201;-77
2022/06/01 02:40:28;;;;;;;6.93;6.72;;;;;;;-141.02;100.00;89556.22;5134838;27;20231;-77
2022/06/01 02:42:56;;;;;;;7.13;6.93;;;;;;;-141.02;100.00;89630.16;5134539;27;20658;-77
2022/06/01 02:45:27;;;;;;;6.60;6.40;;;;;;;-141.02;100.00;89801.44;5134815;27;20204;-77
2022/06/01 02:47:55;;;;;;;6.90;6.70;;;;;;;-141.02;100.00;89902.66;5134505;27;20256;-76
2022/06/01 02:50:26;;;;;;;6.75;6.55;;;;;;;-141.02;100.00;90019.44;5134435;27;20279;-76
2022/06/01 02:52:54;;;;;;;6.60;6.40;;;;;;;-141.02;100.00;90101.19;5134689;27;20212;-76
2022/06/01 02:55:22;;;;;;;6.20;6.10;;;;;;;-141.02;100.00;90210.19;5134376;27;20197;-75
2022/06/01 02:57:51;;;;;;;5.80;5.70;;;;;;;-141.02;100.00;90295.84;5134645;27;20640;-76
2022/06/01 03:00:21;;;;;;;6.00;5.90;;;;;;;-141.02;100.00;90307.53;5134210;27;20287;-77
2022/06/01 03:02:52;;;;;;;6.25;6.13;;;;;;;-141.02;100.00;90284.19;5134579;27;20220;-76
2022/06/01 03:05:22;;;;;;;6.45;6.25;;;;;;;-141.02;100.00;90262.75;5133958;27;20188;-77
2022/06/01 03:07:52;;;;;;;6.55;6.35;;;;;;;-141.02;100.00;90233.56;5134481;27;20267;-77
2022/06/01 03:10:20;;;;;;;6.25;6.13;;;;;;;-141.02;100.00;90147.91;5134214;27;20224;-77
2022/06/01 03:12:47;;;;;;;6.60;6.40;;;;;;;-141.02;100.00;89976.63;5133986;27;20314;-76
2022/06/01 03:15:17;;;;;;;6.10;6.00;;;;;;;-141.02;100.00;90079.78;5134260;27;20196;-76
2022/06/01 03:17:44;;;;;;;7.13;6.93;;;;;;;-141.02;100.00;91238.16;5133940;27;20192;-77
2022/06/01 03:20:15;;;;;;;7.07;6.88;;;;;;;-141.02;100.00;90186.84;5134136;27;20286;-77
2022/06/01 03:22:43;;;;;;;6.90;6.70;;;;;;;-141.02;100.00;90190.75;5134083;27;20275;-77
2022/06/01 03:25:14;;;;;;;6.65;6.45;;;;;;;-141.02;100.00;90288.06;5133803;27;20193;-76
2022/06/01 03:27:41;;;;;;;6.40;6.20;;;;;;;-141.02;100.00;90420.44;5133755;27;20184;-77
2022/06/01 03:30:11;;;;;;;6.43;6.25;;;;;;;-141.02;100.00;90506.09;5133733;27;20684;-77
2022/06/01 03:32:38;;;;;;;6.60;6.40;;;;;;;-141.02;100.00;90502.19;5133849;27;20220;-76
2022/06/01 03:35:07;;;;;;;6.40;6.20;;;;;;;-141.02;100.00;90327.00;5133043;27;20196;-77
2022/06/01 03:37:36;;;;;;;5.90;5.80;;;;;;;-141.02;100.00;89996.09;5133891;27;20201;-76
2022/06/01 03:40:05;;;;;;;6.70;6.50;;;;;;;-141.02;100.00;89560.09;5133866;27;20192;-76
2022/06/01 03:42:32;;;;;;;7.10;6.90;;;;;;;-141.02;100.00;89085.25;5133904;27;20269;-77
2022/06/01 03:47:44;;;;;;;8.18;7.97;;;;;;;-141.02;100.00;87925.66;5133861;27;20579;-77
2022/06/01 03:50:12;;;;;;;9.15;8.85;;;;;;;-141.02;100.00;87575.53;5133651;27;20210;-78
2022/06/01 03:52:41;;;;;;;11.23;10.82;;;;;;;-141.02;100.00;87256.53;5133583;27;20356;-77
2022/06/01 03:55:09;;;;;;;10.27;9.98;;;;;;;-141.02;100.00;87365.47;5133280;27;20194;-77
2022/06/01 03:57:36;;;;;;;9.20;8.90;;;;;;;-141.02;100.00;87466.59;5133772;27;20196;-77
2022/06/01 04:00:04;;;;;;;9.98;9.68;;;;;;;-141.02;100.00;87421.88;5133237;27;20192;-77
2022/06/01 04:02:31;;;;;;;11.10;10.80;;;;;;;-141.02;100.00;87297.38;5133304;27;20196;-77
2022/06/01 04:04:59;;;;;;;11.80;11.40;;;;;;;-141.02;100.00;87095.13;5133739;27;20224;-77
2022/06/01 04:07:27;;;;;;;12.63;12.23;;;;;;;-141.02;100.00;86855.91;5133191;27;20236;-77
2022/06/01 04:09:55;;;;;;;14.20;13.70;;;;;;;-141.02;100.00;86449.50;5133703;27;20195;-77
2022/06/01 04:12:23;;;;;;;16.33;15.63;;;;;;;-141.02;100.00;86000.34;5134080;27;20213;-77
2022/06/01 04:14:50;;;;;;;18.58;17.67;;;;;;;-141.02;100.00;85609.56;5133543;27;20198;-77
2022/06/01 04:17:17;;;;;;;19.98;18.88;;;;;;;-141.02;100.00;85179.97;5132988;28;20192;-77
2022/06/01 04:19:44;;;;;;;19.50;18.50;;;;;;;-141.02;100.00;85181.91;5133466;28;20192;-76
2022/06/01 04:22:14;;;;;;;17.98;17.17;;;;;;;-141.02;100.00;85067.25;5133423;28;20373;-77
2022/06/01 04:24:41;;;;;;;17.77;17.08;;;;;;;-141.02;100.00;84929.25;5134035;28;20551;-77
2022/06/01 04:27:10;;;;;;;17.13;16.42;;;;;;;-141.02;100.00;84600.78;5132973;28;20639;-77
2022/06/01 04:29:37;;;;;;;18.15;17.35;;;;;;;-141.02;94.13;84565.81;5132898;28;20669;-77
2022/06/01 04:32:09;;;;;;;18.55;17.75;;;;;;;-141.02;82.42;84398.69;5133319;28;20189;-77
2022/06/01 04:34:36;;;;;;;16.88;16.17;;;;;;;-141.02;81.54;84289.84;5133420;28;20207;-77
2022/06/01 04:37:03;;;;;;;16.52;15.82;;;;;;;-141.02;83.09;84256.81;5134038;28;20238;-77
2022/06/01 04:39:30;;;;;;;16.30;15.60;;;;;;;-141.02;77.49;84136.34;5133327;28;20275;-77
2022/06/01 04:41:58;;;;;;;15.95;15.25;;;;;;;-141.02;83.43;84254.88;5133086;28;20193;-77
2022/06/01 04:44:27;;;;;;;15.50;14.80;;;;;;;-141.02;88.00;84264.59;5133726;28;20260;-77
2022/06/01 04:46:54;;;;;;;14.90;14.30;;;;;;;-141.02;89.03;84278.19;5136985;27;20562;-77
2022/06/01 04:49:21;;;;;;;15.27;14.57;;;;;;;-141.02;87.14;84268.47;5137358;27;20200;-77
2022/06/01 04:51:48;;;;;;;15.27;14.57;;;;;;;-141.02;87.76;84219.91;5137462;27;20192;-76
2022/06/01 04:54:15;;;;;;;15.70;15.00;;;;;;;-141.02;87.57;84239.31;5137511;27;20256;-77
2022/06/01 04:56:42;;;;;;;14.88;14.18;;;;;;;-141.02;94.33;84289.84;5137129;27;20283;-77
2022/06/01 04:59:09;;;;;;;14.80;14.20;;;;;;;-141.02;94.19;84289.84;5137084;27;20280;-77
2022/06/01 05:01:38;;;;;;;14.70;14.10;;;;;;;-141.02;98.24;84313.16;5137835;27;20666;-78
2022/06/01 05:04:06;;;;;;;14.32;13.73;;;;;;;-141.02;100.00;84355.94;5137168;27;20227;-77
2022/06/01 05:06:33;;;;;;;14.38;13.77;;;;;;;-141.02;100.00;84402.56;5137045;27;20239;-77
2022/06/01 05:09:00;;;;;;;13.90;13.30;;;;;;;-141.02;100.00;84439.50;5137065;27;20231;-77
2022/06/01 05:11:27;;;;;;;13.45;12.95;;;;;;;-141.02;100.00;84488.06;5137358;27;20261;-77
2022/06/01 05:13:54;;;;;;;13.57;13.07;;;;;;;-141.02;100.00;84505.56;5137300;27;20668;-78
2022/06/01 05:16:21;;;;;;;12.82;12.32;;;;;;;-141.02;100.00;84515.28;5137019;27;20230;-77
2022/06/01 05:18:50;;;;;;;14.02;13.43;;;;;;;-141.02;100.00;84455.03;5137261;27;20224;-77
2022/06/01 05:21:17;;;;;;;13.60;13.10;;;;;;;-141.02;100.00;84526.94;5136694;27;20207;-76
2022/06/01 05:23:44;;;;;;;13.30;12.80;;;;;;;-141.02;100.00;84521.09;5136747;27;20195;-76
2022/06/01 05:26:11;;;;;;;12.73;12.23;;;;;;;-141.02;100.00;84542.47;5136106;27;20654;-76
2022/06/01 05:28:38;;;;;;;12.68;12.27;;;;;;;-141.02;100.00;84511.41;5137057;27;20192;-77
2022/06/01 05:31:07;;;;;;;12.43;12.00;;;;;;;-141.02;100.00;84565.81;5136424;27;20192;-76
2022/06/01 05:33:34;;;;;;;13.02;12.52;;;;;;;-141.02;100.00;84546.38;5136112;27;20311;-77
2022/06/01 05:36:04;;;;;;;12.00;11.60;;;;;;;-141.02;100.00;84593.00;5136537;27;20238;-77
2022/06/01 05:38:31;;;;;;;12.10;11.70;;;;;;;-141.02;100.00;84569.69;5136135;27;20672;-79
2022/06/01 05:40:58;;;;;;;11.70;11.30;;;;;;;-141.02;100.00;84639.66;5136509;27;20200;-80
2022/06/01 05:43:25;;;;;;;11.70;11.30;;;;;;;-141.02;100.00;84655.19;5136192;27;20243;-76
2022/06/01 05:45:52;;;;;;;11.25;10.85;;;;;;;-141.02;100.00;84662.97;5136825;27;20757;-79
2022/06/01 05:48:22;;;;;;;10.90;10.60;;;;;;;-141.02;100.00;84725.16;5136082;27;20275;-78
2022/06/01 05:50:49;;;;;;;10.55;10.25;;;;;;;-141.02;100.00;84287.91;5136426;27;20269;-77
2022/06/01 05:53:17;;;;;;;11.10;10.70;;;;;;;-141.02;100.00;84713.50;5135820;27;20255;-77
2022/06/01 05:55:45;;;;;;;10.82;10.43;;;;;;;-141.02;100.00;84736.84;5135602;27;20770;-78
2022/06/01 05:58:13;;;;;;;11.35;10.95;;;;;;;-141.02;100.00;84752.38;5135015;27;20276;-77
2022/06/01 06:00:41;;;;;;;10.90;10.60;;;;;;;-141.02;100.00;84740.72;5135623;27;20203;-77
2022/06/01 06:03:08;;;;;;;10.40;10.10;;;;;;;-141.02;100.00;84818.47;5135431;27;20201;-76
2022/06/01 06:08:21;;;;;;;10.18;9.88;;;;;;;-141.02;100.00;84822.34;5136097;27;20180;-76
2022/06/01 06:10:48;;;;;;;11.10;10.70;;;;;;;-141.02;100.00;84812.63;5136349;27;20203;-77
2022/06/01 06:13:15;;;;;;;11.23;10.82;;;;;;;-141.02;100.00;84775.69;5135569;27;20664;-77
2022/06/01 06:15:42;;;;;;;12.00;11.60;;;;;;;-141.02;100.00;84760.16;5135240;27;20677;-77
2022/06/01 06:18:12;;;;;;;11.40;11.00;;;;;;;-141.02;100.00;84765.97;5135439;27;20199;-77
2022/06/01 06:20:39;;;;;;;12.07;11.68;;;;;;;-141.02;100.00;84740.72;5135558;27;20192;-77
2022/06/01 06:23:06;;;;;;;12.00;11.60;;;;;;;-141.02;100.00;84732.94;5135382;27;20196;-77
2022/06/01 06:25:35;;;;;;;11.40;11.00;;;;;;;-141.02;100.00;84764.03;5134971;27;20279;-77
2022/06/01 06:28:02;;;;;;;12.07;11.68;;;;;;;-141.02;100.00;84696.03;5134949;27;20674;-76
2022/06/01 06:30:29;;;;;;;12.43;12.02;;;;;;;-141.02;100.00;84694.06;5134962;27;20284;-78
2022/06/01 06:32:56;;;;;;;12.45;12.05;;;;;;;-141.02;100.00;84655.19;5135549;27;20192;-77
2022/06/01 06:35:23;;;;;;;12.80;12.40;;;;;;;-141.02;100.00;84639.66;5135229;27;20287;-77
2022/06/01 06:37:50;;;;;;;13.10;12.60;;;;;;;-141.02;100.00;84624.09;5135217;27;20255;-77
2022/06/01 06:40:17;;;;;;;12.40;12.00;;;;;;;-141.02;100.00;84649.38;5135140;27;20271;-76
2022/06/01 06:42:45;;;;;;;12.90;12.50;;;;;;;-141.02;100.00;84612.44;5135185;27;20202;-78
2022/06/01 06:45:13;;;;;;;12.50;12.10;;;;;;;-141.02;100.00;84637.72;5134747;27;20288;-77
2022/06/01 06:47:40;;;;;;;12.05;11.65;;;;;;;-141.02;100.00;84699.91;5135236;27;20195;-77
2022/06/01 06:50:12;;;;;;;12.65;12.25;;;;;;;-141.02;100.00;84635.78;5135045;27;20206;-76
2022/06/01 06:52:39;;;;;;;12.60;12.20;;;;;;;-141.02;100.00;84610.50;5134856;27;20195;-77
2022/06/01 06:55:08;;;;;;;12.65;12.25;;;;;;;-141.02;100.00;84631.88;5134325;27;20230;-77
2022/06/01 06:57:35;;;;;;;12.20;11.80;;;;;;;-141.02;100.00;84620.22;5134677;27;20196;-76
2022/06/01 07:00:07;;;;;;;12.30;11.90;;;;;;;-141.02;100.00;84571.63;5134640;27;20200;-76
2022/06/01 07:02:35;;;;;;;12.45;12.05;;;;;;;-141.02;100.00;84538.59;5134304;27;20192;-76
2022/06/01 07:05:03;;;;;;;13.52;13.02;;;;;;;-141.02;100.00;84490.00;5135027;27;20192;-77
2022/06/01 07:07:30;;;;;;;13.95;13.45;;;;;;;-141.02;100.00;84476.41;5093805;28;20289;-77
2022/06/01 07:09:57;;;;;;;13.90;13.40;;;;;;;-141.02;100.00;84408.41;5093049;28;20568;-76
2022/06/01 07:12:24;;;;;;;14.30;13.80;;;;;;;-141.02;100.00;84352.03;5093097;28;20646;-79
2022/06/01 07:14:51;;;;;;;15.23;14.63;;;;;;;-141.02;100.00;84338.44;5093362;28;20233;-76
2022/06/01 07:17:19;;;;;;;14.48;13.98;;;;;;;-141.02;100.00;84320.94;5093593;28;20201;-76
2022/06/01 07:19:46;;;;;;;15.20;14.60;;;;;;;-141.02;100.00;84161.59;5094239;28;20285;-77
2022/06/01 07:22:13;;;;;;;15.32;14.73;;;;;;;-141.02;100.00;84235.44;5093010;28;20612;-77
2022/06/01 07:24:40;;;;;;;15.18;14.57;;;;;;;-141.02;100.00;84282.09;5093470;28;20281;-79
2022/06/01 07:27:07;;;;;;;28.38;27.02;;;;;;;-141.02;100.00;84258.75;5093062;28;20194;-79
2022/06/01 07:29:34;;;;;;;15.10;14.50;;;;;;;-141.02;100.00;84245.16;5093507;28;20285;-76
2022/06/01 07:32:01;;;;;;;15.27;14.68;;;;;;;-141.02;100.00;84219.91;5092940;28;20245;-76
2022/06/01 07:34:30;;;;;;;15.10;14.50;;;;;;;-141.02;98.84;84200.47;5092858;28;20241;-77
2022/06/01 07:43:05;;;;;;;15.07;14.48;;;;;;;-141.02;98.55;84161.59;5092738;28;20193;-76
2022/06/01 07:45:13;;;;;;;16.25;15.55;;;;;;;-141.02;91.03;84019.75;5093321;28;20750;-78
2022/06/01 07:47:40;;;;;;;15.55;14.95;;;;;;;-141.02;94.06;84002.25;5092869;28;20194;-77
2022/06/01 07:50:09;;;;;;;21.05;20.13;;;;;;;-141.02;88.12;83975.06;5092941;28;20284;-76
2022/06/01 07:52:36;;;;;;;16.52;15.82;;;;;;;-141.02;88.21;83947.84;5092507;28;20735;-77
2022/06/01 07:55:05;;;;;;;17.10;16.40;;;;;;;-141.02;85.70;83891.50;5092723;28;20237;-77
2022/06/01 07:57:33;;;;;;;17.17;16.48;;;;;;;-141.02;89.54;83951.75;5092557;28;20280;-79
2022/06/01 08:00:00;;;;;;;17.73;17.02;;;;;;;-141.02;88.58;83899.28;5092474;28;20281;-78
2022/06/01 08:02:27;;;;;;;17.27;16.58;;;;;;;-141.02;86.70;83905.13;5092764;28;20193;-76
2022/06/01 08:04:54;;;;;;;17.08;16.45;;;;;;;-141.02;89.38;83916.78;5092278;28;20194;-76
2022/06/01 08:07:23;;;;;;;16.73;16.13;;;;;;;-141.02;96.53;83982.84;5130749;27;20263;-78
2022/06/01 08:09:50;;;;;;;17.30;16.60;;;;;;;-141.02;89.82;83874.03;5133656;27;20196;-77
2022/06/01 08:15:02;;;;;;;17.63;16.92;;;;;;;-141.02;87.72;83804.06;5133913;27;20215;-79
2022/06/01 08:17:29;;;;;;;17.17;16.48;;;;;;;-141.02;85.15;83784.66;5134133;28;20287;-80
2022/06/01 08:19:55;;;;;;;18.20;17.40;;;;;;;-141.02;77.66;83695.28;5132916;27;20195;-76
2022/06/01 08:22:24;;;;;;;18.65;17.85;;;;;;;-141.02;76.70;83679.72;5133289;28;20283;-76
2022/06/01 08:24:51;;;;;;;18.30;17.52;;;;;;;-141.02;74.21;83621.44;5133449;28;20218;-76
2022/06/01 08:27:18;;;;;;;18.83;18.02;;;;;;;-141.02;73.70;83567.03;5133734;28;20195;-75
2022/06/01 08:29:45;;;;;;;18.08;17.38;;;;;;;-141.02;70.96;83535.94;5133314;28;20195;-75
2022/06/01 08:32:12;;;;;;;18.05;17.35;;;;;;;-141.02;73.53;83497.09;5133300;28;20623;-77
2022/06/01 08:34:39;;;;;;;18.63;17.83;;;;;;;-141.02;71.29;83458.25;5133386;28;20764;-76
2022/06/01 08:37:07;;;;;;;18.35;17.55;;;;;;;-141.02;70.22;83427.16;5133121;27;20269;-79
2022/06/01 08:39:35;;;;;;;18.90;18.10;;;;;;;-141.02;66.16;83300.88;5133263;27;20192;-77
2022/06/01 08:42:03;;;;;;;19.10;18.30;;;;;;;-141.02;65.71;83256.19;5133056;28;20196;-77
2022/06/01 08:44:33;;;;;;;18.73;17.92;;;;;;;-141.02;67.01;83275.63;5133249;27;20245;-77
2022/06/01 08:47:06;;;;;;;19.13;18.33;;;;;;;-141.02;61.67;83164.91;5134319;28;20227;-77
2022/06/01 08:49:36;;;;;;;18.77;17.98;;;;;;;-141.02;69.26;83197.91;5133528;27;20658;-78
2022/06/01 08:52:04;;;;;;;19.10;18.30;;;;;;;-141.02;64.23;83182.38;5133597;28;20231;-77
2022/06/01 08:54:32;;;;;;;19.40;18.60;;;;;;;-141.02;64.06;83174.59;5133195;28;20231;-75
2022/06/01 08:57:06;;;;;;;19.77;18.88;;;;;;;-141.02;63.03;83139.63;5133347;28;20633;-77
2022/06/01 08:59:43;;;;;;;19.10;18.30;;;;;;;-141.02;64.02;83124.09;5133713;27;20180;-75
2022/06/01 09:02:26;;;;;;;19.52;18.70;;;;;;;-141.02;61.30;83089.13;5132739;28;20249;-78
2022/06/01 09:04:58;;;;;;;19.58;18.67;;;;;;;-141.02;60.67;83042.50;5132699;27;20611;-76
2022/06/01 09:07:31;;;;;;;19.25;18.45;;;;;;;-141.02;60.75;82986.19;5132994;27;20307;-76
2022/06/01 09:10:21;;;;;;;18.83;18.02;;;;;;;-141.02;63.04;83005.59;5134389;28;20215;-77
2022/06/01 09:13:04;;;;;;;19.38;18.58;;;;;;;-141.02;58.02;82848.25;5134382;28;20272;-77
2022/06/01 09:15:41;;;;;;;19.55;18.65;;;;;;;-141.02;58.85;82813.28;5133277;28;20220;-79
2022/06/01 09:18:08;;;;;;;19.08;18.17;;;;;;;-141.02;55.40;82727.84;5133026;27;20226;-76
2022/06/01 09:23:19;;;;;;;20.48;19.48;;;;;;;-141.02;58.76;82704.53;5132949;28;20188;-79
2022/06/01 09:25:52;;;;;;;19.50;18.60;;;;;;;-141.02;54.64;82591.88;5133032;28;20287;-77
2022/06/01 09:28:24;;;;;;;19.83;18.92;;;;;;;-141.02;54.00;82599.63;5134351;28;20655;-79
2022/06/01 09:30:56;;;;;;;20.17;19.27;;;;;;;-141.02;54.83;82576.31;5133973;27;20236;-78
2022/06/01 09:33:26;;;;;;;19.80;18.90;;;;;;;-141.02;57.21;82545.25;5135385;27;20264;-78
2022/06/01 09:36:04;;;;;;;19.75;18.85;;;;;;;-141.02;53.72;82477.28;5136150;27;20319;-78
2022/06/01 09:38:40;;;;;;;19.92;19.02;;;;;;;-141.02;54.05;82405.41;5136990;27;20187;-77
2022/06/01 09:41:10;;;;;;;19.77;18.88;;;;;;;-141.02;51.55;82296.66;5137048;27;20267;-77
2022/06/01 09:43:41;;;;;;;19.90;19.00;;;;;;;-141.02;51.09;82185.94;5136901;27;20200;-76
2022/06/01 09:46:09;;;;;;;20.00;19.10;;;;;;;-141.02;50.38;82187.88;5136800;27;20617;-76
2022/06/01 09:48:38;;;;;;;19.67;18.77;;;;;;;-141.02;50.21;82160.69;5136339;27;20646;-77
2022/06/01 09:51:17;;;;;;;20.15;19.25;;;;;;;-141.02;48.92;81980.09;5136153;27;20192;-77
2022/06/01 09:53:47;;;;;;;19.75;18.85;;;;;;;-141.02;47.87;81939.31;5135911;27;20191;-76
2022/06/01 09:56:19;;;;;;;19.85;18.95;;;;;;;-141.02;47.28;81811.16;5136109;27;20236;-78
2022/06/01 10:07:21;;;;;;;19.50;18.60;;;;;;;-141.02;48.66;81851.94;5136018;27;20231;-77
2022/06/01 10:09:52;;;;;;;19.88;18.98;;;;;;;-141.02;48.36;81867.47;5136248;27;20621;-78
2022/06/01 10:12:34;;;;;;;19.88;18.98;;;;;;;-141.02;49.68;81888.81;5136573;27;20273;-77
2022/06/01 10:15:04;;;;;;;19.65;18.75;;;;;;;-141.02;49.07;81787.84;5136115;27;20212;-78
2022/06/01 10:17:35;;;;;;;19.92;19.02;;;;;;;-141.02;48.34;81756.78;5135707;27;20188;-78
2022/06/01 10:20:19;;;;;;;19.55;18.65;;;;;;;-141.02;47.05;81782.03;5135143;27;20185;-76
2022/06/01 10:22:53;;;;;;;19.63;18.73;;;;;;;-141.02;48.94;81780.09;5135681;27;20608;-78
2022/06/01 10:25:27;;;;;;;19.67;18.77;;;;;;;-141.02;46.74;81737.34;5135471;27;20188;-79
2022/06/01 10:27:58;;;;;;;19.60;18.70;;;;;;;-141.02;47.73;81776.19;5135613;27;20264;-77
2022/06/01 10:30:29;;;;;;;19.45;18.55;;;;;;;-141.02;48.46;81822.81;5135450;27;20273;-75
2022/06/01 10:33:03;;;;;;;19.23;18.33;;;;;;;-141.02;48.50;81820.84;5135267;27;20185;-77
2022/06/01 10:35:39;;;;;;;19.35;18.45;;;;;;;-141.02;48.61;81764.53;5135291;27;20215;-76
2022/06/01 10:38:17;;;;;;;19.35;18.45;;;;;;;-141.02;46.47;81597.56;5135477;27;20245;-77
2022/06/01 10:40:50;;;;;;;19.27;18.38;;;;;;;-141.02;47.94;81651.91;5134953;27;20644;-80
2022/06/01 10:43:38;;;;;;;19.02;18.13;;;;;;;-141.02;47.36;81706.28;5135251;27;20754;-78
2022/06/01 10:46:18;;;;;;;19.60;18.70;;;;;;;-141.02;48.65;81714.06;5132896;27;20220;-76
2022/06/01 10:48:53;;;;;;;19.85;18.95;;;;;;;-141.02;49.08;81752.91;5134813;27;20564;-79
2022/06/01 10:51:27;;;;;;;19.63;18.73;;;;;;;-141.02;47.67;81663.56;5135641;27;20195;-78
2022/06/01 10:54:00;;;;;;;19.55;18.65;;;;;;;-141.02;48.82;81727.66;5134614;27;20696;-78
2022/06/01 10:56:28;;;;;;;19.55;18.65;;;;;;;-141.02;48.43;81772.31;5134507;27;20218;-77
2022/06/01 10:58:59;;;;;;;19.35;18.45;;;;;;;-141.02;47.83;81717.94;5134707;27;20196;-77
2022/06/01 11:01:41;;;;;;;19.60;18.70;;;;;;;-141.02;46.96;81632.50;5135192;27;20195;-76
2022/06/01 11:04:41;;;;;;;20.02;19.13;;;;;;;-141.02;46.95;81613.09;5134711;27;20189;-77
2022/06/01 11:07:31;;;;;;;20.02;19.13;;;;;;;-141.02;46.76;81566.47;5134859;27;20286;-80
2022/06/01 11:10:08;;;;;;;19.42;18.52;;;;;;;-141.02;47.60;81545.13;5135295;27;20189;-78
2022/06/01 11:12:45;;;;;;;19.60;18.70;;;;;;;-141.02;45.10;81446.09;5135641;27;20267;-77
2022/06/01 11:15:25;;;;;;;19.98;19.08;;;;;;;-141.02;46.40;81566.47;5135005;27;20223;-76
2022/06/01 11:18:02;;;;;;;19.55;18.65;;;;;;;-141.02;47.38;81517.94;5134497;27;20275;-78
2022/06/01 11:21:01;;;;;;;20.02;19.13;;;;;;;-141.02;45.36;81453.88;5134527;27;20271;-78
2022/06/01 11:23:49;;;;;;;20.38;19.48;;;;;;;-141.02;45.80;81403.38;5133932;27;20283;-78
2022/06/01 11:26:29;;;;;;;19.20;18.30;;;;;;;-141.02;42.81;81263.59;5134114;27;20200;-81
2022/06/01 11:29:22;;;;;;;19.92;19.02;;;;;;;-141.02;43.72;81259.69;5134481;27;20195;-79
2022/06/01 11:31:52;;;;;;;20.02;19.13;;;;;;;-141.02;43.58;81269.41;5134441;27;20245;-77
2022/06/01 11:34:26;;;;;;;20.13;19.23;;;;;;;-141.02;44.11;81251.94;5133794;27;20196;-79
2022/06/01 11:37:01;;;;;;;20.17;19.27;;;;;;;-141.02;45.13;81271.34;5133939;27;20565;-79
2022/06/01 11:39:33;;;;;;;20.17;19.27;;;;;;;-141.02;40.96;81040.31;5133710;27;20195;-78
2022/06/01 11:42:07;;;;;;;20.15;19.25;;;;;;;-141.02;41.52;80929.66;5133619;27;20228;-77
2022/06/01 11:44:36;;;;;;;20.60;19.60;;;;;;;-141.02;38.96;80723.88;5134193;27;20188;-78
2022/06/01 11:47:08;;;;;;;20.33;19.40;;;;;;;-141.02;42.21;80956.84;5133507;27;20246;-80
2022/06/01 11:49:39;;;;;;;19.83;18.92;;;;;;;-141.02;43.57;81042.25;5133932;27;20549;-78